createdAt,value
2019-05-12T00:02:23.767Z,12.50
2019-05-12T00:04:58.240Z,12.50
2019-05-12T00:07:30.322Z,12.50
2019-05-12T00:10:02.869Z,12.50
2019-05-12T00:12:35.129Z,12.50
2019-05-12T00:15:08.411Z,12.40
2019-05-12T00:17:40.784Z,12.50
2019-05-12T00:20:13.105Z,12.40
2019-05-12T00:22:49.160Z,12.40
2019-05-12T00:25:22.252Z,12.40
2019-05-12T00:27:54.539Z,12.40
2019-05-12T00:30:35.065Z,12.40
2019-05-12T00:33:09.278Z,12.40
2019-05-12T00:35:41.580Z,12.40
2019-05-12T00:38:13.921Z,12.40
2019-05-12T00:40:47.914Z,12.40
2019-05-12T00:43:20.449Z,12.40
2019-05-12T00:45:53.005Z,12.40
2019-05-12T00:48:25.233Z,12.40
2019-05-12T00:50:58.360Z,12.30
2019-05-12T00:53:39.795Z,12.30
2019-05-12T00:56:05.052Z,12.30
2019-05-12T00:58:38.235Z,12.30
2019-05-12T01:01:11.083Z,12.20
2019-05-12T01:03:44.116Z,12.20
2019-05-12T01:06:17.790Z,12.20
2019-05-12T01:08:50.068Z,12.20
2019-05-12T01:11:22.508Z,12.20
2019-05-12T01:13:54.916Z,12.10
2019-05-12T01:16:28.902Z,12.10
2019-05-12T01:19:01.048Z,12.10
2019-05-12T01:21:33.398Z,12.00
2019-05-12T01:24:08.315Z,12.00
2019-05-12T01:26:39.437Z,12.00
2019-05-12T01:29:11.677Z,12.00
2019-05-12T01:31:51.421Z,11.90
2019-05-12T01:34:23.708Z,11.90
2019-05-12T01:37:15.116Z,11.90
2019-05-12T01:39:49.102Z,11.90
2019-05-12T01:42:22.692Z,11.90
2019-05-12T01:44:54.905Z,11.90
2019-05-12T01:47:29.148Z,11.90
2019-05-12T01:50:01.636Z,11.80
2019-05-12T01:52:35.150Z,11.90
2019-05-12T01:55:08.373Z,11.80
2019-05-12T01:57:40.723Z,11.80
2019-05-12T02:00:13.705Z,11.80
2019-05-12T02:02:48.034Z,11.80
2019-05-12T02:05:20.069Z,11.80
2019-05-12T02:07:54.291Z,11.80
2019-05-12T02:10:28.618Z,11.80
2019-05-12T02:13:00.786Z,11.80
2019-05-12T02:15:33.084Z,11.80
2019-05-12T02:18:05.386Z,11.80
2019-05-12T02:20:38.146Z,11.70
2019-05-12T02:23:10.682Z,11.70
2019-05-12T02:25:42.996Z,11.70
2019-05-12T02:28:15.257Z,11.70
2019-05-12T02:30:50.286Z,11.60
2019-05-12T02:33:24.493Z,11.60
2019-05-12T02:35:55.817Z,11.60
2019-05-12T02:38:28.121Z,11.60
2019-05-12T02:41:00.356Z,11.60
2019-05-12T02:43:34.834Z,11.50
2019-05-12T02:46:07.017Z,11.40
2019-05-12T02:48:39.259Z,11.40
2019-05-12T02:51:15.511Z,11.40
2019-05-12T02:53:47.457Z,11.40
2019-05-12T02:56:25.562Z,11.40
2019-05-12T02:58:56.988Z,11.40
2019-05-12T03:01:29.688Z,11.40
2019-05-12T03:04:05.629Z,11.30
2019-05-12T03:06:40.567Z,11.30
2019-05-12T03:09:15.106Z,11.30
2019-05-12T03:11:46.742Z,11.40
2019-05-12T03:14:18.946Z,11.40
2019-05-12T03:16:53.928Z,11.40
2019-05-12T03:19:25.460Z,11.40
2019-05-12T03:21:57.716Z,11.40
2019-05-12T03:24:29.948Z,11.50
2019-05-12T03:27:04.388Z,11.50
2019-05-12T03:29:36.330Z,11.40
2019-05-12T03:32:08.963Z,11.40
2019-05-12T03:34:46.871Z,11.40
2019-05-12T03:37:17.975Z,11.40
2019-05-12T03:39:49.512Z,11.40
2019-05-12T03:42:24.841Z,11.40
2019-05-12T03:44:55.697Z,11.40
2019-05-12T03:47:27.939Z,11.40
2019-05-12T03:50:00.328Z,11.30
2019-05-12T03:52:34.978Z,11.30
2019-05-12T03:55:25.928Z,11.30
2019-05-12T03:57:44.839Z,11.30
2019-05-12T04:00:16.141Z,11.30
2019-05-12T04:02:48.533Z,11.30
2019-05-12T04:05:24.155Z,11.40
2019-05-12T04:07:55.862Z,11.40
2019-05-12T04:10:28.151Z,11.40
2019-05-12T04:13:00.519Z,11.40
2019-05-12T04:15:34.610Z,11.40
2019-05-12T04:18:06.769Z,11.40
2019-05-12T04:20:39.008Z,11.40
2019-05-12T04:23:11.275Z,11.40
2019-05-12T04:25:52.841Z,11.40
2019-05-12T04:28:17.600Z,11.40
2019-05-12T04:30:50.009Z,11.50
2019-05-12T04:33:25.398Z,11.50
2019-05-12T04:35:56.255Z,11.50
2019-05-12T04:38:28.730Z,11.40
2019-05-12T04:41:01.003Z,11.50
2019-05-12T04:43:35.349Z,11.50
2019-05-12T04:46:14.550Z,11.50
2019-05-12T04:48:46.352Z,11.50
2019-05-12T04:51:18.753Z,11.50
2019-05-12T04:53:51.011Z,11.50
2019-05-12T04:56:24.974Z,11.50
2019-05-12T04:58:57.493Z,11.50
2019-05-12T05:01:29.668Z,11.50
2019-05-12T05:04:05.018Z,11.50
2019-05-12T05:06:36.214Z,11.50
2019-05-12T05:09:10.411Z,11.50
2019-05-12T05:11:45.135Z,11.50
2019-05-12T05:14:16.554Z,11.50
2019-05-12T05:16:48.829Z,11.50
2019-05-12T05:19:21.162Z,11.50
2019-05-12T05:21:54.167Z,11.50
2019-05-12T05:24:26.575Z,11.50
2019-05-12T05:26:58.948Z,11.40
2019-05-12T05:29:33.160Z,11.40
2019-05-12T05:32:05.310Z,11.40
2019-05-12T05:34:37.577Z,11.40
2019-05-12T05:37:09.881Z,11.40
2019-05-12T05:39:47.550Z,11.30
2019-05-12T05:42:16.241Z,11.30
2019-05-12T05:44:48.570Z,11.30
2019-05-12T05:47:25.468Z,11.20
2019-05-12T05:49:54.973Z,11.20
2019-05-12T05:52:33.389Z,11.20
2019-05-12T05:55:05.733Z,11.10
2019-05-12T05:57:37.396Z,11.10
2019-05-12T06:00:17.577Z,11.00
2019-05-12T06:02:44.394Z,11.00
2019-05-12T06:05:20.006Z,11.00
2019-05-12T06:07:53.431Z,10.90
2019-05-12T06:10:34.728Z,10.90
2019-05-12T06:12:59.724Z,10.90
2019-05-12T06:15:35.637Z,10.90
2019-05-12T06:18:06.713Z,10.90
2019-05-12T06:20:38.988Z,10.90
2019-05-12T06:23:11.394Z,11.00
2019-05-12T06:25:49.398Z,11.00
2019-05-12T06:28:17.673Z,11.10
2019-05-12T06:30:50.426Z,11.10
2019-05-12T06:33:31.281Z,11.10
2019-05-12T06:35:57.237Z,11.20
2019-05-12T06:38:31.054Z,11.20
2019-05-12T06:41:03.657Z,11.20
2019-05-12T06:43:39.574Z,11.20
2019-05-12T06:46:11.756Z,11.20
2019-05-12T06:48:45.604Z,11.20
2019-05-12T06:51:23.039Z,11.30
2019-05-12T06:53:53.447Z,11.30
2019-05-12T06:56:25.983Z,11.30
2019-05-12T06:59:01.028Z,11.20
2019-05-12T07:01:34.465Z,11.20
2019-05-12T07:04:10.088Z,11.20
2019-05-12T07:06:44.165Z,11.30
2019-05-12T07:09:25.131Z,11.30
2019-05-12T07:11:58.780Z,11.30
2019-05-12T07:14:27.163Z,11.30
2019-05-12T07:17:06.229Z,11.30
2019-05-12T07:19:39.760Z,11.30
2019-05-12T07:22:19.971Z,11.30
2019-05-12T07:24:50.015Z,11.30
2019-05-12T07:27:35.273Z,11.40
2019-05-12T07:29:54.818Z,11.40
2019-05-12T07:32:27.546Z,11.40
2019-05-12T07:34:59.831Z,11.50
2019-05-12T07:37:37.564Z,11.50
2019-05-12T07:40:10.502Z,11.50
2019-05-12T07:42:43.918Z,11.60
2019-05-12T07:45:22.201Z,11.60
2019-05-12T07:47:50.810Z,11.60
2019-05-12T07:50:27.018Z,11.70
2019-05-12T07:52:57.221Z,11.70
2019-05-12T07:55:29.476Z,11.70
2019-05-12T07:58:09.968Z,11.80
2019-05-12T08:00:36.469Z,11.80
2019-05-12T08:03:18.148Z,11.80
2019-05-12T08:05:43.896Z,11.90
2019-05-12T08:08:16.907Z,12.00
2019-05-12T08:10:51.370Z,12.10
2019-05-12T08:13:23.882Z,12.10
2019-05-12T08:15:56.524Z,12.20
2019-05-12T08:18:36.720Z,12.30
2019-05-12T08:21:03.941Z,12.30
2019-05-12T08:23:38.034Z,12.40
2019-05-12T08:26:17.742Z,12.40
2019-05-12T08:28:44.504Z,12.50
2019-05-12T08:31:17.074Z,12.60
2019-05-12T08:33:49.344Z,12.60
2019-05-12T08:36:23.600Z,12.70
2019-05-12T08:38:56.766Z,12.70
2019-05-12T08:41:29.152Z,12.80
2019-05-12T08:44:01.494Z,12.80
2019-05-12T08:46:34.328Z,12.80
2019-05-12T08:49:07.271Z,12.80
2019-05-12T08:51:39.530Z,12.80
2019-05-12T08:54:14.070Z,12.80
2019-05-12T08:56:45.909Z,12.90
2019-05-12T08:59:24.220Z,12.90
2019-05-12T09:01:54.016Z,12.90
2019-05-12T09:04:26.946Z,13.00
2019-05-12T09:06:59.954Z,13.00
2019-05-12T09:09:33.726Z,13.10
2019-05-12T09:12:06.847Z,13.10
2019-05-12T09:14:46.124Z,13.20
2019-05-12T09:17:16.961Z,13.30
2019-05-12T09:19:49.332Z,13.30
2019-05-12T09:22:23.996Z,13.30
2019-05-12T09:24:58.377Z,13.30
2019-05-12T09:27:33.484Z,13.40
2019-05-12T09:30:09.612Z,13.40
2019-05-12T09:32:48.623Z,13.40
2019-05-12T09:35:14.522Z,13.50
2019-05-12T09:37:47.125Z,13.60
2019-05-12T09:40:26.045Z,13.70
2019-05-12T09:43:00.376Z,13.70
2019-05-12T09:45:33.404Z,13.80
2019-05-12T09:48:09.121Z,13.90
2019-05-12T09:50:39.693Z,13.90
2019-05-12T09:53:14.186Z,14.10
2019-05-12T09:55:46.125Z,14.10
2019-05-12T09:58:23.295Z,14.20
2019-05-12T10:00:54.296Z,14.30
2019-05-12T10:03:30.752Z,14.30
2019-05-12T10:06:00.846Z,14.30
2019-05-12T10:08:35.587Z,14.30
2019-05-12T10:11:10.299Z,14.30
2019-05-12T10:13:41.051Z,14.30
2019-05-12T10:16:13.526Z,14.30
2019-05-12T10:18:51.288Z,14.30
2019-05-12T10:21:19.813Z,14.40
2019-05-12T10:26:19.018Z,14.50
2019-05-12T10:28:53.659Z,14.60
2019-05-12T10:31:29.744Z,14.60
2019-05-12T10:34:16.956Z,14.70
2019-05-12T10:36:49.911Z,14.80
2019-05-12T10:39:24.404Z,14.90
2019-05-12T10:41:57.010Z,15.00
2019-05-12T10:44:36.351Z,15.00
2019-05-12T10:47:04.849Z,15.10
2019-05-12T10:49:37.073Z,15.20
2019-05-12T10:52:09.348Z,15.20
2019-05-12T10:54:43.459Z,15.30
2019-05-12T10:57:15.865Z,15.30
2019-05-12T10:59:48.739Z,15.30
2019-05-12T11:02:26.406Z,15.30
2019-05-12T11:04:55.326Z,15.40
2019-05-12T11:07:29.928Z,15.40
2019-05-12T11:10:13.189Z,15.40
2019-05-12T11:12:36.265Z,15.40
2019-05-12T11:15:13.418Z,15.40
2019-05-12T11:18:02.586Z,15.40
2019-05-12T11:20:34.951Z,15.50
2019-05-12T11:23:07.464Z,15.60
2019-05-12T11:25:39.681Z,15.60
2019-05-12T11:28:14.032Z,15.70
2019-05-12T11:30:46.476Z,15.80
2019-05-12T11:33:19.122Z,15.80
2019-05-12T11:35:53.913Z,15.90
2019-05-12T11:38:26.124Z,15.90
2019-05-12T11:40:58.401Z,16.00
2019-05-12T11:43:30.677Z,16.00
2019-05-12T11:46:03.061Z,16.10
2019-05-12T11:48:40.197Z,16.10
2019-05-12T11:51:09.349Z,16.10
2019-05-12T11:53:41.521Z,16.10
2019-05-12T11:56:14.423Z,16.20
2019-05-12T11:58:51.361Z,16.20
2019-05-12T12:01:24.282Z,16.20
2019-05-12T12:03:56.521Z,16.20
2019-05-12T12:06:28.621Z,16.30
2019-05-12T12:09:00.851Z,16.40
2019-05-12T12:11:34.250Z,16.50
2019-05-12T12:14:10.461Z,16.60
2019-05-12T12:16:49.577Z,16.60
2019-05-12T12:19:16.169Z,16.60
2019-05-12T12:21:50.166Z,16.70
2019-05-12T12:24:29.769Z,16.70
2019-05-12T12:26:56.601Z,16.80
2019-05-12T12:29:29.381Z,16.80
2019-05-12T12:32:01.878Z,16.90
2019-05-12T12:34:34.255Z,16.90
2019-05-12T12:37:06.779Z,16.90
2019-05-12T12:39:39.199Z,17.00
2019-05-12T12:42:13.869Z,17.10
2019-05-12T12:44:46.041Z,17.10
2019-05-12T12:47:18.341Z,17.20
2019-05-12T12:49:50.885Z,17.30
2019-05-12T12:52:24.384Z,17.30
2019-05-12T12:55:02.958Z,17.30
2019-05-12T12:57:33.561Z,17.30
2019-05-12T13:00:06.274Z,17.40
2019-05-12T13:02:44.365Z,17.50
2019-05-12T13:05:13.714Z,17.60
2019-05-12T13:07:46.002Z,17.70
2019-05-12T13:10:24.792Z,17.80
2019-05-12T13:13:00.916Z,18.00
2019-05-12T13:15:34.022Z,18.00
2019-05-12T13:18:09.041Z,18.10
2019-05-12T13:20:45.810Z,18.30
2019-05-12T13:23:18.473Z,18.40
2019-05-12T13:25:52.495Z,18.40
2019-05-12T13:28:25.995Z,18.40
2019-05-12T13:31:08.032Z,18.50
2019-05-12T13:33:33.841Z,18.60
2019-05-12T13:36:07.947Z,18.70
2019-05-12T13:38:44.423Z,18.70
2019-05-12T13:41:19.929Z,18.80
2019-05-12T13:43:56.123Z,18.90
2019-05-12T13:46:27.238Z,18.90
2019-05-12T13:49:03.196Z,18.90
2019-05-12T13:51:35.927Z,18.90
2019-05-12T13:54:08.360Z,18.90
2019-05-12T13:56:40.580Z,18.90
2019-05-12T13:59:20.815Z,18.90
2019-05-12T14:01:46.796Z,18.90
2019-05-12T14:04:27.178Z,19.00
2019-05-12T14:06:56.326Z,19.00
2019-05-12T14:09:28.629Z,19.10
2019-05-12T14:12:04.221Z,19.10
2019-05-12T14:14:35.794Z,19.10
2019-05-12T14:17:08.105Z,19.10
2019-05-12T14:19:40.330Z,19.10
2019-05-12T14:22:21.025Z,19.00
2019-05-12T14:24:47.072Z,19.00
2019-05-12T14:27:24.303Z,19.00
2019-05-12T14:29:53.661Z,18.90
2019-05-12T14:32:26.664Z,18.90
2019-05-12T14:35:00.670Z,18.80
2019-05-12T14:37:33.627Z,18.80
2019-05-12T14:40:06.366Z,18.80
2019-05-12T14:42:39.911Z,18.80
2019-05-12T14:45:13.828Z,18.80
2019-05-12T14:47:46.678Z,18.80
2019-05-12T14:50:18.909Z,18.80
2019-05-12T14:52:57.818Z,18.70
2019-05-12T14:55:25.509Z,18.50
2019-05-12T14:57:57.793Z,18.50
2019-05-12T15:00:30.091Z,18.40
2019-05-12T15:03:05.596Z,18.30
2019-05-12T15:05:36.174Z,18.30
2019-05-12T15:08:08.346Z,18.30
2019-05-12T15:10:40.549Z,18.30
2019-05-12T15:13:13.893Z,18.20
2019-05-12T15:15:50.051Z,18.20
2019-05-12T15:18:20.305Z,18.20
2019-05-12T15:20:54.479Z,18.20
2019-05-12T15:23:32.342Z,18.20
2019-05-12T15:26:01.005Z,18.30
2019-05-12T15:28:33.811Z,18.30
2019-05-12T15:31:06.210Z,18.30
2019-05-12T15:33:38.691Z,18.30
2019-05-12T15:36:10.990Z,18.40
2019-05-12T15:38:43.961Z,18.40
2019-05-12T15:41:19.974Z,18.40
2019-05-12T15:43:52.913Z,18.40
2019-05-12T15:46:24.578Z,18.40
2019-05-12T15:48:56.904Z,18.30
2019-05-12T15:51:29.199Z,18.30
2019-05-12T15:54:06.559Z,18.20
2019-05-12T15:56:35.437Z,18.20
2019-05-12T15:59:07.825Z,18.10
2019-05-12T16:01:40.207Z,18.00
2019-05-12T16:04:15.225Z,18.00
2019-05-12T16:06:53.359Z,17.90
2019-05-12T16:09:20.493Z,17.90
2019-05-12T16:11:52.836Z,17.80
2019-05-12T16:14:25.152Z,17.80
2019-05-12T16:16:57.340Z,17.80
2019-05-12T16:19:29.645Z,17.70
2019-05-12T16:22:03.643Z,17.70
2019-05-12T16:24:36.016Z,17.60
2019-05-12T16:27:08.469Z,17.60
2019-05-12T16:29:45.384Z,17.50
2019-05-12T16:32:26.352Z,17.50
2019-05-12T16:34:49.529Z,17.50
2019-05-12T16:37:25.161Z,17.40
2019-05-12T16:39:56.169Z,17.40
2019-05-12T16:42:28.432Z,17.40
2019-05-12T16:45:06.053Z,17.40
2019-05-12T16:47:35.755Z,17.30
2019-05-12T16:50:15.075Z,17.30
2019-05-12T16:52:45.043Z,17.20
2019-05-12T16:55:16.483Z,17.20
2019-05-12T16:57:52.875Z,17.20
2019-05-12T17:00:24.433Z,17.10
2019-05-12T17:02:58.018Z,17.10
2019-05-12T17:05:30.488Z,17.00
2019-05-12T17:08:04.275Z,17.00
2019-05-12T17:10:37.233Z,17.00
2019-05-12T17:13:13.459Z,17.00
2019-05-12T17:15:48.753Z,17.00
2019-05-12T17:18:24.033Z,17.00
2019-05-12T17:20:54.845Z,17.00
2019-05-12T17:23:27.093Z,17.00
2019-05-12T17:25:59.608Z,17.00
2019-05-12T17:28:34.171Z,16.90
2019-05-12T17:31:08.945Z,16.90
2019-05-12T17:33:41.608Z,16.90
2019-05-12T17:36:17.718Z,16.90
2019-05-12T17:38:51.108Z,16.80
2019-05-12T17:41:23.639Z,16.90
2019-05-12T17:44:01.197Z,16.80
2019-05-12T17:46:32.298Z,16.80
2019-05-12T17:49:05.127Z,16.80
2019-05-12T17:51:37.818Z,16.70
2019-05-12T17:54:13.352Z,16.70
2019-05-12T17:56:44.756Z,16.70
2019-05-12T17:59:27.634Z,16.70
2019-05-12T18:01:53.742Z,16.70
2019-05-12T18:04:30.546Z,16.70
2019-05-12T18:07:12.837Z,16.60
2019-05-12T18:09:38.944Z,16.60
2019-05-12T18:12:13.664Z,16.60
2019-05-12T18:14:51.762Z,16.60
2019-05-12T18:17:24.740Z,16.60
2019-05-12T18:20:00.842Z,16.60
2019-05-12T18:22:33.952Z,16.50
2019-05-12T18:25:09.124Z,16.50
2019-05-12T18:27:50.555Z,16.50
2019-05-12T18:30:23.936Z,16.50
2019-05-12T18:33:04.573Z,16.40
2019-05-12T18:35:30.395Z,16.40
2019-05-12T18:38:07.804Z,16.40
2019-05-12T18:40:46.348Z,16.40
2019-05-12T18:43:18.903Z,16.30
2019-05-12T18:45:57.182Z,16.30
2019-05-12T18:48:26.821Z,16.30
2019-05-12T18:51:05.023Z,16.30
2019-05-12T18:53:34.961Z,16.20
2019-05-12T18:56:10.173Z,16.20
2019-05-12T18:58:44.401Z,16.20
2019-05-12T19:01:16.740Z,16.10
2019-05-12T19:03:51.187Z,16.10
2019-05-12T19:06:23.631Z,16.10
2019-05-12T19:08:56.219Z,16.00
2019-05-12T19:11:40.786Z,16.00
2019-05-12T19:14:04.336Z,16.00
2019-05-12T19:16:39.618Z,15.90
2019-05-12T19:19:16.422Z,15.90
2019-05-12T19:21:47.202Z,15.80
2019-05-12T19:24:21.357Z,15.80
2019-05-12T19:26:54.255Z,15.80
2019-05-12T19:29:29.738Z,15.80
2019-05-12T19:32:04.340Z,15.70
2019-05-12T19:34:37.556Z,15.70
2019-05-12T19:37:11.077Z,15.70
2019-05-12T19:39:44.545Z,15.60
2019-05-12T19:42:20.441Z,15.60
2019-05-12T19:44:56.625Z,15.60
2019-05-12T19:47:33.591Z,15.60
2019-05-12T19:50:06.998Z,15.50
2019-05-12T19:52:36.573Z,15.50
2019-05-12T19:55:09.049Z,15.50
2019-05-12T19:57:43.817Z,15.50
2019-05-12T20:00:16.026Z,15.50
2019-05-12T20:02:48.537Z,15.50
2019-05-12T20:05:20.937Z,15.40
2019-05-12T20:07:53.840Z,15.40
2019-05-12T20:10:26.542Z,15.40
2019-05-12T20:13:00.247Z,15.30
2019-05-12T20:15:39.712Z,15.30
2019-05-12T20:18:09.775Z,15.30
2019-05-12T20:20:44.778Z,15.30
2019-05-12T20:23:17.401Z,15.30
2019-05-12T20:25:49.809Z,15.30
2019-05-12T20:28:24.191Z,15.20
2019-05-12T20:31:01.073Z,15.20
2019-05-12T20:33:30.632Z,15.20
2019-05-12T20:36:04.393Z,15.20
2019-05-12T20:38:38.759Z,15.20
2019-05-12T20:41:20.228Z,15.10
2019-05-12T20:43:49.953Z,15.10
2019-05-12T20:46:25.870Z,15.10
2019-05-12T20:49:01.169Z,15.00
2019-05-12T20:51:30.758Z,15.00
2019-05-12T20:54:07.540Z,14.90
2019-05-12T20:56:39.116Z,14.90
2019-05-12T20:59:13.742Z,14.80
2019-05-12T21:01:45.921Z,14.80
2019-05-12T21:04:22.201Z,14.80
2019-05-12T21:06:56.522Z,14.70
2019-05-12T21:09:28.981Z,14.70
2019-05-12T21:12:01.297Z,14.60
2019-05-12T21:14:36.259Z,14.60
2019-05-12T21:17:11.471Z,14.50
2019-05-12T21:19:55.770Z,14.40
2019-05-12T21:22:18.398Z,14.30
2019-05-12T21:24:53.243Z,14.30
2019-05-12T21:27:25.221Z,14.20
2019-05-12T21:30:00.544Z,14.10
2019-05-12T21:32:33.940Z,14.10
2019-05-12T21:35:18.424Z,14.00
2019-05-12T21:37:45.539Z,14.00
2019-05-12T21:40:15.849Z,13.90
2019-05-12T21:42:48.127Z,13.90
2019-05-12T21:45:25.465Z,13.90
2019-05-12T21:47:56.595Z,13.90
2019-05-12T21:50:32.396Z,13.80
2019-05-12T21:53:04.305Z,13.80
2019-05-12T21:55:37.230Z,13.80
2019-05-12T21:58:12.015Z,13.70
2019-05-12T22:00:50.410Z,13.70
2019-05-12T22:03:24.385Z,13.70
2019-05-12T22:05:56.618Z,13.70
2019-05-12T22:08:30.098Z,13.60
2019-05-12T22:11:09.572Z,13.60
2019-05-12T22:13:37.412Z,13.60
2019-05-12T22:16:09.668Z,13.60
2019-05-12T22:18:43.754Z,13.50
2019-05-12T22:21:19.245Z,13.50
2019-05-12T22:23:54.259Z,13.50
2019-05-12T22:26:30.698Z,13.40
2019-05-12T22:29:00.646Z,13.40
2019-05-12T22:31:33.379Z,13.40
2019-05-12T22:34:05.650Z,13.30
2019-05-12T22:36:37.916Z,13.30
2019-05-12T22:39:10.176Z,13.30
2019-05-12T22:41:43.968Z,13.20
2019-05-12T22:44:20.915Z,13.20
2019-05-12T22:46:50.156Z,13.20
2019-05-12T22:49:22.411Z,13.20
2019-05-12T22:52:02.833Z,13.20
2019-05-12T22:54:29.868Z,13.10
2019-05-12T22:57:04.114Z,13.10
2019-05-12T22:59:40.318Z,13.00
2019-05-12T23:02:15.966Z,13.00
2019-05-12T23:04:46.489Z,13.00
2019-05-12T23:07:24.175Z,12.90
2019-05-12T23:09:53.809Z,12.90
2019-05-12T23:12:27.432Z,12.80
2019-05-12T23:15:02.977Z,12.80
2019-05-12T23:17:39.043Z,12.70
2019-05-12T23:20:08.978Z,12.70
2019-05-12T23:22:43.643Z,12.70
2019-05-12T23:25:21.489Z,12.70
2019-05-12T23:27:54.275Z,12.60
2019-05-12T23:30:26.769Z,12.60
2019-05-12T23:32:59.050Z,12.50
2019-05-12T23:35:37.234Z,12.50
2019-05-12T23:38:10.617Z,12.50
2019-05-12T23:40:40.101Z,12.40
2019-05-12T23:43:14.421Z,12.40
2019-05-12T23:45:46.373Z,12.40
2019-05-12T23:48:18.529Z,12.40
2019-05-12T23:50:50.888Z,12.30
2019-05-12T23:53:24.289Z,12.30
2019-05-12T23:55:56.792Z,12.20
2019-05-12T23:58:29.833Z,12.20
